Time;durP1;ratioP1;P1;durP2;ratioP2;P2;SDS_P1;SDS_P2;PMS_P1;PMS_P2;Temp;Humidity;BMP_temperature;BMP_pressure;BME280_temperature;BME280_humidity;BME280_pressure;Samples;Min_cycle;Max_cycle;Signal;HPM_P1;HPM_P2
2023/06/13 00:00:26;;;;;;;7.78;5.80;;;;;;;;;;5032373;28;20091;-73
2023/06/13 00:02:53;;;;;;;8.57;6.13;;;;;;;;;;5032340;28;20125;-73
2023/06/13 00:05:21;;;;;;;6.80;5.25;;;;;;;;;;5032422;28;20025;-73
2023/06/13 00:07:49;;;;;;;7.57;5.32;;;;;;;;;;5032860;28;20072;-73
2023/06/13 00:10:15;;;;;;;9.02;5.30;;;;;;;;;;5032823;28;20061;-73
2023/06/13 00:12:44;;;;;;;8.35;5.72;;;;;;;;;;5032424;28;20061;-73
2023/06/13 00:15:11;;;;;;;7.63;5.40;;;;;;;;;;5032265;28;20113;-73
2023/06/13 00:17:38;;;;;;;6.53;5.65;;;;;;;;;;5032304;28;20017;-73
2023/06/13 00:20:08;;;;;;;8.25;6.22;;;;;;;;;;5032169;28;20052;-73
2023/06/13 00:22:34;;;;;;;;;;;;;;;;;;5032638;28;20442;-73
2023/06/13 00:25:00;;;;;;;11.63;5.97;;;;;;;;;;5032198;28;19909;-74
2023/06/13 00:27:26;;;;;;;7.43;5.47;;;;;;;;;;5032154;28;20036;-73
2023/06/13 00:29:52;;;;;;;7.82;5.57;;;;;;;;;;5032101;28;20029;-73
2023/06/13 00:32:18;;;;;;;8.63;6.10;;;;;;;;;;5032022;28;20167;-73
2023/06/13 00:34:46;;;;;;;6.93;5.43;;;;;;;;;;5030780;28;20155;-73
2023/06/13 00:37:13;;;;;;;6.25;5.25;;;;;;;;;;5032251;28;20010;-73
2023/06/13 00:39:41;;;;;;;8.25;6.15;;;;;;;;;;5031818;28;20569;-73
2023/06/13 00:42:07;;;;;;;7.50;6.30;;;;;;;;;;5031872;28;20040;-73
2023/06/13 00:44:34;;;;;;;8.15;5.78;;;;;;;;;;5031940;28;20033;-73
2023/06/13 00:47:02;;;;;;;9.57;5.85;;;;;;;;;;5031817;28;20025;-73
2023/06/13 00:49:28;;;;;;;6.40;5.57;;;;;;;;;;5032081;28;20039;-73
2023/06/13 00:51:56;;;;;;;7.45;5.70;;;;;;;;;;5035867;28;20446;-73
2023/06/13 00:54:23;;;;;;;7.22;5.90;;;;;;;;;;5035605;28;20399;-73
2023/06/13 00:56:49;;;;;;;8.45;5.60;;;;;;;;;;5035569;28;20018;-73
2023/06/13 00:59:15;;;;;;;9.48;5.57;;;;;;;;;;5035425;28;20120;-73
2023/06/13 01:01:42;;;;;;;7.90;6.28;;;;;;;;;;5035456;28;20100;-73
2023/06/13 01:04:08;;;;;;;9.48;5.65;;;;;;;;;;5035470;28;20076;-73
2023/06/13 01:06:40;;;;;;;8.90;5.90;;;;;;;;;;5035406;28;20640;-73
2023/06/13 01:09:07;;;;;;;8.18;6.53;;;;;;;;;;5035606;28;20060;-73
2023/06/13 01:11:33;;;;;;;8.50;6.65;;;;;;;;;;5035199;28;20491;-73
2023/06/13 01:14:04;;;;;;;10.40;6.30;;;;;;;;;;5035586;28;20133;-73
2023/06/13 01:16:40;;;;;;;7.88;6.22;;;;;;;;;;5035416;28;20029;-73
2023/06/13 01:19:11;;;;;;;8.73;6.60;;;;;;;;;;5035543;28;20069;-72
2023/06/13 01:21:38;;;;;;;9.95;6.38;;;;;;;;;;5035191;28;20037;-72
2023/06/13 01:24:05;;;;;;;8.52;6.50;;;;;;;;;;5035093;28;20152;-73
2023/06/13 01:26:37;;;;;;;11.02;7.18;;;;;;;;;;5035238;28;20029;-73
2023/06/13 01:29:04;;;;;;;8.60;6.57;;;;;;;;;;5034989;28;20577;-73
2023/06/13 01:31:31;;;;;;;9.60;6.15;;;;;;;;;;5034734;28;20040;-73
2023/06/13 01:33:58;;;;;;;10.82;6.38;;;;;;;;;;5034941;28;20048;-73
2023/06/13 01:36:24;;;;;;;8.88;5.95;;;;;;;;;;5034597;28;20042;-73
2023/06/13 01:38:51;;;;;;;10.40;6.25;;;;;;;;;;5034698;28;20461;-73
2023/06/13 01:41:17;;;;;;;8.75;6.00;;;;;;;;;;5034771;28;20101;-73
2023/06/13 01:43:43;;;;;;;9.48;6.22;;;;;;;;;;5034317;28;20053;-73
2023/06/13 01:46:27;;;;;;;12.73;6.43;;;;;;;;;;5034484;28;20060;-73
2023/06/13 01:48:53;;;;;;;9.75;5.63;;;;;;;;;;5034630;28;20614;-73
2023/06/13 01:51:35;;;;;;;7.90;5.80;;;;;;;;;;5034557;28;20528;-73
2023/06/13 01:54:07;;;;;;;9.43;5.63;;;;;;;;;;5034304;28;20040;-73
2023/06/13 01:56:33;;;;;;;7.35;6.00;;;;;;;;;;5034268;28;20124;-73
2023/06/13 01:59:07;;;;;;;11.30;6.05;;;;;;;;;;5034478;28;20112;-73
2023/06/13 02:01:34;;;;;;;7.25;5.63;;;;;;;;;;5034305;28;20487;-73
2023/06/13 02:04:00;;;;;;;7.95;5.38;;;;;;;;;;5034641;28;20021;-73
2023/06/13 02:06:26;;;;;;;9.30;6.45;;;;;;;;;;5034405;28;20456;-73
2023/06/13 02:08:53;;;;;;;8.57;5.57;;;;;;;;;;5034321;28;20037;-73
2023/06/13 02:11:19;;;;;;;7.93;6.10;;;;;;;;;;5034261;28;20037;-73
2023/06/13 02:13:45;;;;;;;9.52;6.28;;;;;;;;;;5034211;28;20112;-73
2023/06/13 02:16:12;;;;;;;7.38;5.78;;;;;;;;;;5034146;28;20528;-73
2023/06/13 02:18:39;;;;;;;9.55;6.32;;;;;;;;;;5033993;28;20025;-73
2023/06/13 02:21:05;;;;;;;9.93;6.05;;;;;;;;;;5034336;28;20025;-73
2023/06/13 02:23:31;;;;;;;6.82;5.38;;;;;;;;;;5034234;28;20032;-73
2023/06/13 02:25:57;;;;;;;7.30;5.50;;;;;;;;;;5034058;28;20037;-73
2023/06/13 02:28:23;;;;;;;8.50;5.50;;;;;;;;;;5034089;28;20039;-73
2023/06/13 02:30:49;;;;;;;9.10;5.38;;;;;;;;;;5033704;28;20037;-73
2023/06/13 02:33:15;;;;;;;8.48;5.68;;;;;;;;;;5033703;28;20036;-73
2023/06/13 02:35:42;;;;;;;10.07;5.70;;;;;;;;;;5032400;28;20053;-72
2023/06/13 02:38:08;;;;;;;10.68;5.90;;;;;;;;;;5033741;28;20028;-72
2023/06/13 02:40:37;;;;;;;7.18;5.22;;;;;;;;;;5033928;28;20396;-73
2023/06/13 02:43:03;;;;;;;9.20;6.10;;;;;;;;;;5033501;28;20021;-73
2023/06/13 02:45:29;;;;;;;9.15;5.65;;;;;;;;;;5033515;28;20033;-73
2023/06/13 02:47:56;;;;;;;6.65;5.30;;;;;;;;;;5033443;28;20029;-73
2023/06/13 02:50:22;;;;;;;7.65;5.60;;;;;;;;;;5033508;28;20025;-73
2023/06/13 02:52:48;;;;;;;11.23;6.10;;;;;;;;;;5033271;28;20021;-73
2023/06/13 02:55:14;;;;;;;8.20;5.55;;;;;;;;;;5032946;28;20080;-73
2023/06/13 02:57:41;;;;;;;6.72;5.30;;;;;;;;;;5033063;28;20510;-73
2023/06/13 03:00:08;;;;;;;6.10;5.10;;;;;;;;;;5033180;28;20026;-73
2023/06/13 03:02:36;;;;;;;7.30;5.35;;;;;;;;;;5032991;28;20028;-73
2023/06/13 03:05:04;;;;;;;6.65;5.55;;;;;;;;;;5033337;28;20018;-73
2023/06/13 03:07:31;;;;;;;6.88;5.45;;;;;;;;;;5032744;28;20036;-73
2023/06/13 03:09:58;;;;;;;11.43;5.88;;;;;;;;;;5032767;28;20014;-73
2023/06/13 03:12:24;;;;;;;8.95;5.85;;;;;;;;;;5032599;28;20038;-73
2023/06/13 03:14:50;;;;;;;8.30;5.32;;;;;;;;;;5032772;28;20025;-73
2023/06/13 03:17:16;;;;;;;9.18;5.45;;;;;;;;;;5032926;28;20106;-73
2023/06/13 03:19:42;;;;;;;6.82;5.20;;;;;;;;;;5033161;28;20021;-73
2023/06/13 03:22:14;;;;;;;7.43;5.43;;;;;;;;;;5032854;28;20038;-73
2023/06/13 03:24:44;;;;;;;7.32;5.75;;;;;;;;;;5032703;28;20029;-72
2023/06/13 03:27:12;;;;;;;;;;;;;;;;;;5033353;28;20071;-72
2023/06/13 03:29:38;;;;;;;8.15;5.22;;;;;;;;;;5032472;28;19906;-72
2023/06/13 03:32:04;;;;;;;6.20;5.25;;;;;;;;;;5032440;28;20033;-72
2023/06/13 03:34:37;;;;;;;9.13;6.32;;;;;;;;;;5032648;28;20029;-73
2023/06/13 03:37:05;;;;;;;7.55;6.00;;;;;;;;;;5029937;28;20140;-72
2023/06/13 03:39:31;;;;;;;9.52;6.18;;;;;;;;;;5032672;28;20453;-73
2023/06/13 03:41:57;;;;;;;6.82;6.03;;;;;;;;;;5032628;28;20075;-72
2023/06/13 03:44:23;;;;;;;9.85;6.20;;;;;;;;;;5033132;28;20057;-72
2023/06/13 03:46:49;;;;;;;7.20;5.88;;;;;;;;;;5032663;28;20053;-72
2023/06/13 03:49:15;;;;;;;9.75;5.45;;;;;;;;;;5032116;28;20034;-72
2023/06/13 03:51:42;;;;;;;10.40;5.72;;;;;;;;;;5030693;28;20357;-72
2023/06/13 03:54:08;;;;;;;7.82;5.45;;;;;;;;;;5031019;28;20022;-72
2023/06/13 03:56:41;;;;;;;7.70;5.28;;;;;;;;;;5030897;28;20095;-73
2023/06/13 03:59:07;;;;;;;9.88;5.82;;;;;;;;;;5027953;28;20068;-72
2023/06/13 04:01:33;;;;;;;10.00;5.95;;;;;;;;;;5010781;28;20072;-73
2023/06/13 04:03:59;;;;;;;6.93;5.47;;;;;;;;;;5011179;28;20026;-73
2023/06/13 04:06:28;;;;;;;8.32;6.13;;;;;;;;;;5011540;28;20029;-72
2023/06/13 04:08:54;;;;;;;9.88;6.00;;;;;;;;;;5011090;28;20728;-72
2023/06/13 04:11:24;;;;;;;7.65;5.75;;;;;;;;;;5010832;28;20038;-72
2023/06/13 04:13:50;;;;;;;8.05;5.40;;;;;;;;;;5010720;28;20068;-72
2023/06/13 04:16:16;;;;;;;6.43;5.18;;;;;;;;;;5010749;28;20057;-72
2023/06/13 04:18:44;;;;;;;13.85;5.88;;;;;;;;;;5010934;28;20099;-72
2023/06/13 04:21:10;;;;;;;7.55;5.47;;;;;;;;;;5011520;28;20029;-73
2023/06/13 04:23:36;;;;;;;6.53;5.35;;;;;;;;;;5012204;28;20041;-72
2023/06/13 04:26:03;;;;;;;8.82;4.97;;;;;;;;;;5016413;28;20357;-72
2023/06/13 04:28:33;;;;;;;7.50;5.57;;;;;;;;;;5036029;28;20029;-72
2023/06/13 04:31:00;;;;;;;7.45;5.35;;;;;;;;;;5036135;28;20041;-72
2023/06/13 04:33:26;;;;;;;6.30;5.10;;;;;;;;;;5035952;28;20021;-72
2023/06/13 04:35:54;;;;;;;7.97;5.40;;;;;;;;;;5035649;28;20049;-72
2023/06/13 04:38:21;;;;;;;8.30;5.70;;;;;;;;;;5036011;28;20112;-72
2023/06/13 04:40:48;;;;;;;8.13;5.13;;;;;;;;;;5036286;28;20067;-72
2023/06/13 04:43:17;;;;;;;8.60;5.93;;;;;;;;;;5035772;28;20053;-72
2023/06/13 04:45:46;;;;;;;6.30;5.28;;;;;;;;;;5035895;28;20025;-72
2023/06/13 04:48:13;;;;;;;6.30;5.17;;;;;;;;;;5035869;28;20022;-73
2023/06/13 04:50:40;;;;;;;11.15;5.25;;;;;;;;;;5035583;28;20020;-72
2023/06/13 04:53:08;;;;;;;7.28;5.38;;;;;;;;;;5035702;28;20045;-73
2023/06/13 04:55:35;;;;;;;10.35;5.70;;;;;;;;;;5035977;28;20104;-72
2023/06/13 04:58:01;;;;;;;6.82;5.28;;;;;;;;;;5035483;28;20024;-73
2023/06/13 05:00:27;;;;;;;7.22;5.25;;;;;;;;;;5035533;28;20026;-73
2023/06/13 05:02:55;;;;;;;8.02;5.53;;;;;;;;;;5035829;28;20036;-73
2023/06/13 05:05:22;;;;;;;6.45;5.25;;;;;;;;;;5035700;28;20017;-73
2023/06/13 05:07:49;;;;;;;6.75;5.80;;;;;;;;;;5035675;28;20057;-73
2023/06/13 05:10:15;;;;;;;6.38;5.32;;;;;;;;;;5035348;28;20084;-73
2023/06/13 05:12:41;;;;;;;6.80;5.53;;;;;;;;;;5035183;28;20061;-73
2023/06/13 05:15:07;;;;;;;7.60;5.32;;;;;;;;;;5024134;28;20038;-73
2023/06/13 05:17:34;;;;;;;8.82;5.60;;;;;;;;;;5015505;28;20457;-74
2023/06/13 05:20:00;;;;;;;6.88;4.75;;;;;;;;;;5015713;28;20141;-74
2023/06/13 05:22:26;;;;;;;5.60;5.10;;;;;;;;;;5015414;28;20112;-73
2023/06/13 05:24:52;;;;;;;7.40;5.30;;;;;;;;;;5029514;28;20544;-74
2023/06/13 05:27:18;;;;;;;6.07;5.35;;;;;;;;;;5034638;28;20030;-74
2023/06/13 05:29:44;;;;;;;6.50;5.30;;;;;;;;;;5034934;28;20030;-73
2023/06/13 05:32:10;;;;;;;7.35;5.80;;;;;;;;;;5035187;28;20104;-73
2023/06/13 05:34:37;;;;;;;5.35;4.85;;;;;;;;;;5035092;28;20115;-73
2023/06/13 05:37:10;;;;;;;8.25;5.53;;;;;;;;;;5033107;28;20055;-73
2023/06/13 05:39:36;;;;;;;7.53;5.40;;;;;;;;;;5034762;28;20104;-73
2023/06/13 05:42:02;;;;;;;5.82;5.15;;;;;;;;;;5034588;28;20121;-73
2023/06/13 05:44:28;;;;;;;6.45;5.63;;;;;;;;;;5035115;28;20029;-73
2023/06/13 05:46:54;;;;;;;6.78;5.38;;;;;;;;;;5034366;28;20029;-73
2023/06/13 05:49:20;;;;;;;6.47;5.40;;;;;;;;;;5034654;28;20067;-74
2023/06/13 05:51:46;;;;;;;6.10;5.03;;;;;;;;;;5034389;28;20384;-74
2023/06/13 05:54:12;;;;;;;7.30;5.07;;;;;;;;;;5034560;28;20029;-74
2023/06/13 05:56:38;;;;;;;6.50;4.85;;;;;;;;;;5034466;28;20025;-74
2023/06/13 05:59:04;;;;;;;7.50;5.03;;;;;;;;;;5034482;28;20105;-74
2023/06/13 06:01:31;;;;;;;6.18;5.43;;;;;;;;;;5034682;28;20061;-74
2023/06/13 06:03:57;;;;;;;6.70;5.47;;;;;;;;;;5034592;28;20076;-74
2023/06/13 06:06:23;;;;;;;5.78;5.22;;;;;;;;;;5034345;28;20025;-74
2023/06/13 06:08:50;;;;;;;7.53;5.43;;;;;;;;;;5031547;28;20036;-74
2023/06/13 06:11:16;;;;;;;5.75;4.88;;;;;;;;;;5014490;28;20041;-74
2023/06/13 06:13:42;;;;;;;6.18;4.97;;;;;;;;;;5014164;28;20033;-74
2023/06/13 06:16:08;;;;;;;8.00;5.25;;;;;;;;;;5014135;28;20113;-74
2023/06/13 06:18:33;;;;;;;6.05;5.22;;;;;;;;;;5017144;28;20511;-73
2023/06/13 06:21:02;;;;;;;5.90;5.13;;;;;;;;;;5020688;28;20094;-73
2023/06/13 06:23:28;;;;;;;7.60;5.20;;;;;;;;;;5023748;28;20024;-73
2023/06/13 06:25:55;;;;;;;4.93;4.50;;;;;;;;;;5016008;28;20077;-73
2023/06/13 06:28:21;;;;;;;5.43;4.90;;;;;;;;;;5033889;28;20017;-73
2023/06/13 06:30:47;;;;;;;8.68;5.22;;;;;;;;;;5033992;28;20087;-74
2023/06/13 06:33:13;;;;;;;6.75;5.22;;;;;;;;;;5033691;28;20535;-73
2023/06/13 06:35:39;;;;;;;8.10;4.47;;;;;;;;;;5032542;28;20045;-73
2023/06/13 06:38:05;;;;;;;6.78;4.68;;;;;;;;;;5033706;28;20033;-73
2023/06/13 06:40:30;;;;;;;6.63;4.90;;;;;;;;;;5033426;28;20397;-74
2023/06/13 06:42:56;;;;;;;7.72;4.95;;;;;;;;;;5033582;28;20027;-74
2023/06/13 06:45:22;;;;;;;5.78;4.53;;;;;;;;;;5033472;28;20448;-74
2023/06/13 06:47:49;;;;;;;6.68;4.90;;;;;;;;;;5032562;28;20021;-73
2023/06/13 06:50:15;;;;;;;6.65;4.65;;;;;;;;;;5033828;28;20140;-73
2023/06/13 06:52:41;;;;;;;6.88;4.70;;;;;;;;;;5033337;28;20527;-74
2023/06/13 06:55:07;;;;;;;6.80;4.65;;;;;;;;;;5033378;28;20021;-73
2023/06/13 06:57:33;;;;;;;5.75;4.35;;;;;;;;;;5033246;28;20592;-74
2023/06/13 06:59:59;;;;;;;4.90;4.00;;;;;;;;;;5033255;28;20637;-74
2023/06/13 07:02:25;;;;;;;6.32;4.65;;;;;;;;;;5033217;28;20033;-74
2023/06/13 07:04:51;;;;;;;9.25;4.90;;;;;;;;;;5032999;28;20025;-74
2023/06/13 07:07:17;;;;;;;6.00;4.55;;;;;;;;;;5033138;28;20093;-73
2023/06/13 07:09:43;;;;;;;6.35;4.60;;;;;;;;;;5033119;28;20108;-73
2023/06/13 07:12:09;;;;;;;7.35;4.68;;;;;;;;;;5031711;28;20041;-74
2023/06/13 07:14:35;;;;;;;5.80;4.72;;;;;;;;;;5031961;28;20401;-74
2023/06/13 07:17:01;;;;;;;7.15;4.60;;;;;;;;;;5032038;28;20524;-74
2023/06/13 07:19:27;;;;;;;5.63;4.32;;;;;;;;;;5032204;28;20025;-74
2023/06/13 07:21:54;;;;;;;4.03;3.47;;;;;;;;;;5032638;28;20036;-74
2023/06/13 07:24:20;;;;;;;5.03;4.22;;;;;;;;;;5032887;28;20476;-74
2023/06/13 07:26:46;;;;;;;4.15;3.78;;;;;;;;;;5032888;28;20036;-74
2023/06/13 07:29:13;;;;;;;5.30;3.78;;;;;;;;;;5032687;28;20026;-74
2023/06/13 07:31:38;;;;;;;5.20;4.20;;;;;;;;;;5032924;28;20029;-74
2023/06/13 07:34:05;;;;;;;6.88;4.18;;;;;;;;;;5032560;28;20424;-74
2023/06/13 07:36:45;;;;;;;4.68;3.83;;;;;;;;;;5031694;28;20076;-74
2023/06/13 07:39:18;;;;;;;8.20;4.38;;;;;;;;;;5032559;28;20058;-74
2023/06/13 07:41:46;;;;;;;5.88;4.07;;;;;;;;;;5032873;28;20032;-74
2023/06/13 07:44:12;;;;;;;4.28;3.55;;;;;;;;;;5047803;28;20018;-74
2023/06/13 07:46:38;;;;;;;5.35;3.88;;;;;;;;;;5032655;28;20482;-74
2023/06/13 07:49:04;;;;;;;5.97;3.33;;;;;;;;;;5032295;28;20044;-74
2023/06/13 07:51:31;;;;;;;4.93;3.60;;;;;;;;;;5031812;28;20029;-74
2023/06/13 07:53:57;;;;;;;4.13;3.70;;;;;;;;;;5032443;28;20033;-74
2023/06/13 07:56:23;;;;;;;5.88;3.15;;;;;;;;;;5032427;28;20072;-74
2023/06/13 07:58:49;;;;;;;5.07;3.80;;;;;;;;;;5032173;28;20029;-74
2023/06/13 08:01:15;;;;;;;4.05;3.58;;;;;;;;;;5032570;28;20116;-74
2023/06/13 08:03:41;;;;;;;3.60;3.10;;;;;;;;;;5032593;28;20025;-73
2023/06/13 08:06:07;;;;;;;7.53;3.33;;;;;;;;;;5032570;28;20057;-73
2023/06/13 08:08:33;;;;;;;7.07;3.40;;;;;;;;;;5032035;28;20057;-73
2023/06/13 08:10:59;;;;;;;7.20;3.30;;;;;;;;;;5032149;28;20556;-73
2023/06/13 08:13:25;;;;;;;3.47;3.15;;;;;;;;;;5032219;28;20041;-73
2023/06/13 08:15:51;;;;;;;3.65;3.35;;;;;;;;;;5032261;28;20032;-73
2023/06/13 08:18:17;;;;;;;4.43;3.20;;;;;;;;;;5031984;28;20026;-73
2023/06/13 08:20:43;;;;;;;4.75;3.10;;;;;;;;;;5032199;28;20033;-73
2023/06/13 08:23:09;;;;;;;3.78;3.42;;;;;;;;;;5032227;28;20025;-73
2023/06/13 08:25:36;;;;;;;4.13;3.10;;;;;;;;;;5032173;28;20476;-73
2023/06/13 08:28:02;;;;;;;6.43;3.35;;;;;;;;;;5032486;28;20432;-73
2023/06/13 08:30:28;;;;;;;4.18;3.10;;;;;;;;;;5031542;28;20183;-73
2023/06/13 08:32:54;;;;;;;4.00;3.55;;;;;;;;;;5031520;28;20448;-73
2023/06/13 08:35:20;;;;;;;6.65;2.67;;;;;;;;;;5031316;28;20476;-73
2023/06/13 08:37:46;;;;;;;5.53;2.80;;;;;;;;;;5031540;28;20378;-73
2023/06/13 08:40:13;;;;;;;4.90;3.25;;;;;;;;;;5032143;28;20481;-73
2023/06/13 08:42:39;;;;;;;4.15;3.30;;;;;;;;;;5032017;28;20029;-73
2023/06/13 08:45:06;;;;;;;3.65;3.10;;;;;;;;;;5031884;28;20052;-73
2023/06/13 08:47:33;;;;;;;5.43;3.20;;;;;;;;;;5031684;28;20026;-73
2023/06/13 08:50:00;;;;;;;5.05;3.30;;;;;;;;;;5031812;28;20446;-73
2023/06/13 08:52:30;;;;;;;4.25;3.00;;;;;;;;;;5031742;28;20080;-73
2023/06/13 08:54:59;;;;;;;4.28;3.00;;;;;;;;;;5031830;28;20144;-73
2023/06/13 08:57:27;;;;;;;3.55;3.25;;;;;;;;;;5031908;28;20068;-73
2023/06/13 08:59:55;;;;;;;5.10;3.17;;;;;;;;;;5031508;28;20109;-73
2023/06/13 09:02:23;;;;;;;7.35;3.50;;;;;;;;;;5031666;28;20053;-73
2023/06/13 09:04:50;;;;;;;5.55;3.13;;;;;;;;;;5030246;28;20026;-73
2023/06/13 09:07:16;;;;;;;3.67;2.97;;;;;;;;;;5030307;28;20029;-73
2023/06/13 09:09:43;;;;;;;4.65;3.20;;;;;;;;;;5031656;28;20385;-73
2023/06/13 09:12:11;;;;;;;4.00;3.15;;;;;;;;;;5033919;28;20057;-73
2023/06/13 09:14:38;;;;;;;4.50;2.92;;;;;;;;;;5034985;28;20029;-72
2023/06/13 09:17:04;;;;;;;4.57;3.38;;;;;;;;;;5035268;28;20072;-73
2023/06/13 09:19:31;;;;;;;3.20;2.95;;;;;;;;;;5033853;28;20361;-72
2023/06/13 09:21:57;;;;;;;5.25;3.30;;;;;;;;;;5035126;28;20068;-73
2023/06/13 09:24:25;;;;;;;4.93;3.00;;;;;;;;;;5034987;28;20060;-72
2023/06/13 09:26:51;;;;;;;4.93;3.53;;;;;;;;;;5035040;28;20403;-73
2023/06/13 09:29:17;;;;;;;3.55;3.25;;;;;;;;;;5033641;28;20580;-72
2023/06/13 09:31:43;;;;;;;6.90;3.65;;;;;;;;;;5034813;28;20029;-72
2023/06/13 09:34:14;;;;;;;4.88;3.72;;;;;;;;;;5034789;28;20053;-73
2023/06/13 09:36:40;;;;;;;6.00;3.47;;;;;;;;;;5033950;28;20045;-73
2023/06/13 09:39:06;;;;;;;6.05;3.55;;;;;;;;;;5034782;28;20049;-72
2023/06/13 09:41:33;;;;;;;4.30;3.40;;;;;;;;;;5034513;28;20499;-72
2023/06/13 09:44:06;;;;;;;4.05;3.33;;;;;;;;;;5034637;28;20541;-72
2023/06/13 09:46:35;;;;;;;5.30;3.90;;;;;;;;;;5034555;28;20028;-72
2023/06/13 09:49:01;;;;;;;;;;;;;;;;;;5034866;28;20079;-72
2023/06/13 09:51:32;;;;;;;3.70;3.28;;;;;;;;;;5034387;28;19916;-72
2023/06/13 09:53:59;;;;;;;3.92;3.53;;;;;;;;;;5034573;28;20049;-72
2023/06/13 09:56:25;;;;;;;5.30;3.63;;;;;;;;;;5034276;28;20022;-72
2023/06/13 09:58:51;;;;;;;4.18;3.78;;;;;;;;;;5034407;28;20027;-72
2023/06/13 10:01:18;;;;;;;4.47;3.45;;;;;;;;;;5034167;28;20025;-72
2023/06/13 10:03:45;;;;;;;5.18;3.90;;;;;;;;;;5034377;28;20021;-72
2023/06/13 10:06:11;;;;;;;4.95;3.38;;;;;;;;;;5033937;28;20025;-72
2023/06/13 10:08:37;;;;;;;3.90;3.50;;;;;;;;;;5031453;28;20022;-72
2023/06/13 10:11:07;;;;;;;5.25;3.38;;;;;;;;;;5033908;28;20561;-72
2023/06/13 10:13:36;;;;;;;4.30;3.55;;;;;;;;;;5033966;28;20037;-73
2023/06/13 10:16:03;;;;;;;4.45;3.42;;;;;;;;;;5033786;28;20076;-72
2023/06/13 10:18:30;;;;;;;3.88;3.45;;;;;;;;;;5033936;28;20523;-72
2023/06/13 10:20:57;;;;;;;7.50;3.80;;;;;;;;;;5033865;28;20021;-72
2023/06/13 10:23:30;;;;;;;5.72;3.72;;;;;;;;;;5033428;28;20021;-72
2023/06/13 10:25:58;;;;;;;4.20;3.28;;;;;;;;;;5033908;28;20400;-72
2023/06/13 10:28:42;;;;;;;4.38;3.95;;;;;;;;;;5033962;28;20480;-72
2023/06/13 10:31:11;;;;;;;6.15;3.25;;;;;;;;;;5033638;28;20030;-72
2023/06/13 10:34:00;;;;;;;4.20;3.60;;;;;;;;;;5048838;28;20094;-72
2023/06/13 10:36:27;;;;;;;;;;;;;;;;;;5024856;28;20124;-72
2023/06/13 10:39:03;;;;;;;2.92;2.58;;;;;;;;;;5033471;28;20001;-72
2023/06/13 10:41:45;;;;;;;8.63;3.38;;;;;;;;;;5033806;28;20140;-72
2023/06/13 10:44:24;;;;;;;5.50;2.83;;;;;;;;;;5033462;28;20400;-72
2023/06/13 10:46:50;;;;;;;3.83;2.70;;;;;;;;;;5032778;28;20030;-72
2023/06/13 10:49:16;;;;;;;5.85;4.22;;;;;;;;;;5028981;28;20083;-72
2023/06/13 10:51:45;;;;;;;6.18;3.15;;;;;;;;;;5019550;28;20030;-72
2023/06/13 10:54:12;;;;;;;5.57;2.90;;;;;;;;;;5013505;28;20192;-72
2023/06/13 10:56:41;;;;;;;5.65;3.60;;;;;;;;;;5012188;28;20477;-72
2023/06/13 10:59:08;;;;;;;3.13;2.60;;;;;;;;;;5013538;28;20018;-72
2023/06/13 11:01:35;;;;;;;8.93;3.15;;;;;;;;;;5013252;28;20029;-72
2023/06/13 11:04:19;;;;;;;5.32;2.53;;;;;;;;;;5013392;28;20022;-72
2023/06/13 11:06:52;;;;;;;3.53;2.50;;;;;;;;;;5013317;28;20429;-72
2023/06/13 11:09:20;;;;;;;2.92;1.98;;;;;;;;;;5028356;28;20029;-71
2023/06/13 11:11:56;;;;;;;4.95;3.17;;;;;;;;;;5032135;28;20060;-71
2023/06/13 11:14:25;;;;;;;4.03;2.90;;;;;;;;;;5027584;28;20495;-72
2023/06/13 11:16:51;;;;;;;3.85;3.38;;;;;;;;;;5032213;28;20707;-71
2023/06/13 11:19:21;;;;;;;4.35;2.88;;;;;;;;;;5032492;28;20535;-71
2023/06/13 11:21:52;;;;;;;4.10;2.58;;;;;;;;;;5031147;28;20037;-72
2023/06/13 11:24:19;;;;;;;5.18;3.22;;;;;;;;;;5030654;28;20037;-72
2023/06/13 11:26:45;;;;;;;3.65;2.80;;;;;;;;;;5031997;28;20030;-72
2023/06/13 11:29:12;;;;;;;2.30;1.92;;;;;;;;;;5031931;28;20400;-71
2023/06/13 11:31:39;;;;;;;3.03;2.00;;;;;;;;;;5031919;28;20455;-71
2023/06/13 11:34:06;;;;;;;3.17;2.38;;;;;;;;;;5031721;28;20021;-71
2023/06/13 11:36:35;;;;;;;5.50;2.50;;;;;;;;;;5031146;28;20132;-72
2023/06/13 11:39:03;;;;;;;3.95;2.50;;;;;;;;;;5031857;28;20464;-71
2023/06/13 11:41:29;;;;;;;5.45;2.28;;;;;;;;;;5032010;28;20024;-71
2023/06/13 11:43:56;;;;;;;4.72;2.17;;;;;;;;;;5032036;28;20488;-72
2023/06/13 11:46:22;;;;;;;4.68;2.22;;;;;;;;;;5031864;28;20022;-72
2023/06/13 11:48:54;;;;;;;4.90;2.50;;;;;;;;;;5031836;28;20055;-71
2023/06/13 11:51:20;;;;;;;6.55;2.33;;;;;;;;;;5031941;28;20072;-71
2023/06/13 11:53:52;;;;;;;4.30;1.92;;;;;;;;;;5032239;28;20048;-71
2023/06/13 11:56:19;;;;;;;3.10;2.03;;;;;;;;;;5032291;28;20026;-70
2023/06/13 11:58:46;;;;;;;3.63;1.75;;;;;;;;;;5032044;28;20469;-70
2023/06/13 12:01:16;;;;;;;2.15;1.75;;;;;;;;;;5032222;28;20534;-70
2023/06/13 12:03:48;;;;;;;3.58;1.85;;;;;;;;;;5032039;28;20398;-71
2023/06/13 12:06:15;;;;;;;3.83;1.67;;;;;;;;;;5031701;28;20030;-71
2023/06/13 12:08:44;;;;;;;2.05;1.50;;;;;;;;;;5031876;28;20116;-72
2023/06/13 12:11:11;;;;;;;2.25;1.90;;;;;;;;;;5031993;28;20029;-71
2023/06/13 12:13:37;;;;;;;2.58;1.95;;;;;;;;;;5031594;28;20427;-71
2023/06/13 12:16:07;;;;;;;5.50;2.00;;;;;;;;;;5031966;28;20459;-71
2023/06/13 12:18:33;;;;;;;;;;;;;;;;;;5032146;28;20017;-72
2023/06/13 12:20:59;;;;;;;2.55;1.70;;;;;;;;;;5029470;28;20484;-72
2023/06/13 12:23:26;;;;;;;4.03;1.90;;;;;;;;;;5031122;28;20045;-72
2023/06/13 12:25:53;;;;;;;4.82;1.90;;;;;;;;;;5031855;28;20457;-71
2023/06/13 12:28:19;;;;;;;4.00;1.83;;;;;;;;;;5031375;28;20033;-71
2023/06/13 12:30:47;;;;;;;5.47;2.42;;;;;;;;;;5031759;28;20025;-72
2023/06/13 12:33:16;;;;;;;7.60;1.65;;;;;;;;;;5031159;28;20520;-72
2023/06/13 12:35:52;;;;;;;6.03;2.20;;;;;;;;;;5030898;28;20636;-71
2023/06/13 12:38:30;;;;;;;3.22;1.80;;;;;;;;;;5031332;28;20370;-71
2023/06/13 12:40:56;;;;;;;3.60;1.90;;;;;;;;;;5024675;28;20079;-70
2023/06/13 12:43:29;;;;;;;6.95;2.30;;;;;;;;;;5030987;28;20053;-71
2023/06/13 12:45:56;;;;;;;9.07;1.85;;;;;;;;;;5031492;28;20481;-73
2023/06/13 12:48:22;;;;;;;2.35;1.48;;;;;;;;;;5034357;28;20116;-71
2023/06/13 12:50:49;;;;;;;3.78;1.13;;;;;;;;;;5034931;28;20037;-71
2023/06/13 12:53:24;;;;;;;4.75;1.40;;;;;;;;;;5035373;28;20033;-73
2023/06/13 12:55:51;;;;;;;3.58;1.60;;;;;;;;;;5035481;28;20024;-72
2023/06/13 12:58:38;;;;;;;3.42;1.70;;;;;;;;;;5035256;28;20034;-71
2023/06/13 13:01:07;;;;;;;5.43;1.70;;;;;;;;;;5035410;28;20436;-71
2023/06/13 13:03:35;;;;;;;7.50;1.95;;;;;;;;;;5035121;28;20035;-72
2023/06/13 13:06:01;;;;;;;3.50;1.70;;;;;;;;;;5035312;28;20053;-72
2023/06/13 13:08:28;;;;;;;2.50;1.38;;;;;;;;;;5035168;28;20029;-72
2023/06/13 13:10:55;;;;;;;2.38;2.05;;;;;;;;;;5035190;28;20021;-72
2023/06/13 13:13:21;;;;;;;10.27;2.85;;;;;;;;;;5035005;28;20057;-73
2023/06/13 13:15:47;;;;;;;5.10;1.88;;;;;;;;;;5035185;28;20022;-74
2023/06/13 13:18:14;;;;;;;2.83;1.25;;;;;;;;;;5035105;28;20033;-73
2023/06/13 13:20:40;;;;;;;7.10;2.08;;;;;;;;;;5034892;28;20017;-73
2023/06/13 13:23:06;;;;;;;3.75;1.60;;;;;;;;;;5034851;28;20026;-73
2023/06/13 13:25:32;;;;;;;3.63;1.60;;;;;;;;;;5034916;28;20061;-73
2023/06/13 13:27:59;;;;;;;4.68;1.52;;;;;;;;;;5035094;28;20029;-73
2023/06/13 13:30:25;;;;;;;2.80;2.30;;;;;;;;;;5034762;28;20022;-73
2023/06/13 13:32:51;;;;;;;3.72;2.00;;;;;;;;;;5049883;28;20036;-73
2023/06/13 13:35:17;;;;;;;4.03;1.35;;;;;;;;;;5034699;28;20514;-73
2023/06/13 13:37:45;;;;;;;4.38;2.00;;;;;;;;;;5033360;28;20049;-73
2023/06/13 13:40:11;;;;;;;3.63;1.52;;;;;;;;;;5034698;28;20024;-73
2023/06/13 13:42:38;;;;;;;3.03;1.17;;;;;;;;;;5034878;28;20041;-73
2023/06/13 13:45:05;;;;;;;6.03;2.38;;;;;;;;;;5034640;28;20022;-73
2023/06/13 13:47:31;;;;;;;5.07;2.13;;;;;;;;;;5034500;28;20018;-72
2023/06/13 13:50:00;;;;;;;6.30;2.40;;;;;;;;;;5034461;28;20049;-72
2023/06/13 13:52:26;;;;;;;6.45;2.67;;;;;;;;;;5034138;28;20083;-71
2023/06/13 13:54:53;;;;;;;4.45;2.15;;;;;;;;;;5034484;28;20468;-72
2023/06/13 13:57:19;;;;;;;3.97;1.95;;;;;;;;;;5033902;28;20049;-72
2023/06/13 13:59:47;;;;;;;4.32;3.03;;;;;;;;;;5043011;28;20125;-72
2023/06/13 14:02:13;;;;;;;2.28;1.60;;;;;;;;;;5034230;28;20025;-71
2023/06/13 14:04:39;;;;;;;1.80;1.55;;;;;;;;;;5034286;28;20071;-72
2023/06/13 14:07:05;;;;;;;4.32;1.60;;;;;;;;;;5034113;28;20021;-72
2023/06/13 14:09:31;;;;;;;3.85;1.92;;;;;;;;;;5034265;28;20033;-72
2023/06/13 14:11:58;;;;;;;5.28;2.38;;;;;;;;;;5033972;28;20075;-72
2023/06/13 14:14:24;;;;;;;6.03;2.65;;;;;;;;;;5033993;28;20109;-72
2023/06/13 14:16:50;;;;;;;4.78;2.80;;;;;;;;;;5033993;28;20105;-72
2023/06/13 14:19:16;;;;;;;7.78;2.22;;;;;;;;;;5034221;28;20037;-72
2023/06/13 14:21:42;;;;;;;4.40;1.60;;;;;;;;;;5032907;28;20025;-72
2023/06/13 14:24:11;;;;;;;5.53;2.65;;;;;;;;;;5033631;28;20021;-72
2023/06/13 14:26:37;;;;;;;6.55;2.00;;;;;;;;;;5033943;28;20579;-71
2023/06/13 14:29:03;;;;;;;4.80;2.30;;;;;;;;;;5033758;28;20072;-71
2023/06/13 14:31:29;;;;;;;3.45;2.05;;;;;;;;;;5033792;28;20026;-71
2023/06/13 14:33:55;;;;;;;6.50;2.22;;;;;;;;;;5034043;28;20044;-71
2023/06/13 14:36:21;;;;;;;5.72;2.63;;;;;;;;;;5033613;28;20052;-72
2023/06/13 14:38:48;;;;;;;6.20;2.63;;;;;;;;;;5033891;28;20021;-72
2023/06/13 14:41:14;;;;;;;2.70;1.60;;;;;;;;;;5033543;28;20147;-72
2023/06/13 14:43:41;;;;;;;3.75;2.50;;;;;;;;;;5033986;28;20025;-71